createdAt,value
2019-03-24T00:01:21.041Z,26.82
2019-03-24T00:02:55.325Z,27.85
2019-03-24T00:04:29.366Z,28.40
2019-03-24T00:06:04.015Z,24.07
2019-03-24T00:07:38.372Z,21.70
2019-03-24T00:09:12.593Z,25.00
2019-03-24T00:10:46.907Z,23.50
2019-03-24T00:12:20.593Z,24.17
2019-03-24T00:13:54.234Z,27.60
2019-03-24T00:15:28.546Z,22.40
2019-03-24T00:17:02.859Z,30.90
2019-03-24T00:18:37.115Z,27.55
2019-03-24T00:20:14.486Z,22.75
2019-03-24T00:21:48.997Z,31.20
2019-03-24T00:23:23.256Z,32.48
2019-03-24T00:24:57.564Z,27.10
2019-03-24T00:26:31.799Z,32.75
2019-03-24T00:28:06.105Z,35.52
2019-03-24T00:29:40.468Z,35.15
2019-03-24T00:31:14.724Z,28.83
2019-03-24T00:32:48.938Z,29.32
2019-03-24T00:34:23.211Z,28.20
2019-03-24T00:35:57.500Z,30.60
2019-03-24T00:37:32.048Z,30.95
2019-03-24T00:39:07.136Z,31.07
2019-03-24T00:40:41.416Z,28.67
2019-03-24T00:42:15.662Z,26.05
2019-03-24T00:43:49.972Z,22.65
2019-03-24T00:45:24.310Z,24.77
2019-03-24T00:46:58.546Z,24.90
2019-03-24T00:48:32.780Z,29.65
2019-03-24T00:50:07.826Z,26.65
2019-03-24T00:51:42.089Z,29.10
2019-03-24T00:53:16.391Z,28.27
2019-03-24T00:54:50.668Z,32.58
2019-03-24T00:56:24.932Z,27.30
2019-03-24T00:57:59.165Z,28.23
2019-03-24T00:59:33.454Z,29.98
2019-03-24T01:01:07.828Z,30.45
2019-03-24T01:02:42.121Z,26.97
2019-03-24T01:04:16.442Z,26.52
2019-03-24T01:05:51.179Z,29.52
2019-03-24T01:07:25.451Z,23.45
2019-03-24T01:08:59.695Z,24.37
2019-03-24T01:10:34.004Z,23.87
2019-03-24T01:12:07.739Z,24.33
2019-03-24T01:13:41.492Z,24.03
2019-03-24T01:15:15.108Z,24.27
2019-03-24T01:16:48.754Z,25.40
2019-03-24T01:18:22.487Z,24.93
2019-03-24T01:19:56.143Z,27.53
2019-03-24T01:21:29.795Z,23.10
2019-03-24T01:23:04.701Z,26.00
2019-03-24T01:24:38.402Z,23.53
2019-03-24T01:26:12.031Z,34.40
2019-03-24T01:27:45.749Z,27.27
2019-03-24T01:29:19.393Z,23.83
2019-03-24T01:30:53.076Z,27.00
2019-03-24T01:32:26.809Z,22.90
2019-03-24T01:34:00.454Z,21.53
2019-03-24T01:35:34.187Z,26.57
2019-03-24T01:37:08.488Z,28.10
2019-03-24T01:38:42.630Z,27.23
2019-03-24T01:40:16.284Z,25.43
2019-03-24T01:41:49.917Z,29.13
2019-03-24T01:43:24.195Z,29.42
2019-03-24T01:44:57.887Z,31.00
2019-03-24T01:46:31.600Z,30.07
2019-03-24T01:48:05.441Z,30.77
2019-03-24T01:49:39.081Z,30.33
2019-03-24T01:51:12.768Z,31.43
2019-03-24T01:52:46.449Z,29.73
2019-03-24T01:54:20.701Z,28.83
2019-03-24T01:55:54.388Z,33.80
2019-03-24T01:57:28.121Z,29.07
2019-03-24T01:59:01.878Z,27.47
2019-03-24T02:00:35.580Z,26.57
2019-03-24T02:02:09.380Z,26.07
2019-03-24T02:03:43.609Z,30.72
2019-03-24T02:05:17.344Z,29.57
2019-03-24T02:06:51.676Z,28.57
2019-03-24T02:08:25.326Z,28.67
2019-03-24T02:09:59.010Z,26.13
2019-03-24T02:11:32.736Z,40.80
2019-03-24T02:13:06.364Z,23.30
2019-03-24T02:14:40.091Z,26.73
2019-03-24T02:16:14.427Z,28.17
2019-03-24T02:17:48.155Z,26.73
2019-03-24T02:19:21.857Z,24.30
2019-03-24T02:20:55.610Z,25.97
2019-03-24T02:22:29.275Z,25.77
2019-03-24T02:24:02.988Z,21.33
2019-03-24T02:25:37.060Z,27.73
2019-03-24T02:27:10.737Z,69.83
2019-03-24T02:28:45.037Z,53.38
2019-03-24T02:30:18.680Z,70.27
2019-03-24T02:31:52.328Z,32.07
2019-03-24T02:33:26.067Z,26.87
2019-03-24T02:34:59.718Z,22.33
2019-03-24T02:36:33.409Z,21.57
2019-03-24T02:38:07.143Z,23.97
2019-03-24T02:39:40.773Z,26.40
2019-03-24T02:41:15.566Z,25.55
2019-03-24T02:42:49.340Z,24.30
2019-03-24T02:44:23.374Z,22.30
2019-03-24T02:45:57.103Z,22.63
2019-03-24T02:47:30.746Z,25.40
2019-03-24T02:49:04.459Z,21.53
2019-03-24T02:50:38.182Z,102.93
2019-03-24T02:52:11.880Z,85.57
2019-03-24T02:53:45.615Z,60.53
2019-03-24T02:55:19.960Z,75.40
2019-03-24T02:56:54.473Z,34.77
2019-03-24T02:58:28.122Z,19.00
2019-03-24T03:00:02.479Z,36.50
2019-03-24T03:01:36.192Z,25.43
2019-03-24T03:03:09.883Z,29.63
2019-03-24T03:04:43.502Z,29.40
2019-03-24T03:06:17.301Z,23.97
2019-03-24T03:07:51.168Z,18.50
2019-03-24T03:09:24.856Z,18.70
2019-03-24T03:10:58.629Z,23.87
2019-03-24T03:12:32.666Z,20.83
2019-03-24T03:14:06.412Z,26.40
2019-03-24T03:15:40.112Z,24.47
2019-03-24T03:17:13.882Z,26.33
2019-03-24T03:18:47.595Z,27.40
2019-03-24T03:20:21.309Z,26.43
2019-03-24T03:21:54.972Z,26.57
2019-03-24T03:23:28.714Z,23.17
2019-03-24T03:25:02.410Z,22.87
2019-03-24T03:26:36.058Z,24.73
2019-03-24T03:28:10.316Z,23.77
2019-03-24T03:29:44.015Z,23.87
2019-03-24T03:31:17.762Z,26.57
2019-03-24T03:32:51.569Z,25.70
2019-03-24T03:34:25.348Z,25.43
2019-03-24T03:35:59.001Z,23.63
2019-03-24T03:37:32.683Z,23.87
2019-03-24T03:39:07.399Z,21.50
2019-03-24T03:40:41.094Z,29.93
2019-03-24T03:42:14.888Z,26.23
2019-03-24T03:43:48.538Z,18.33
2019-03-24T03:45:27.078Z,21.50
2019-03-24T03:47:00.733Z,17.87
2019-03-24T03:48:34.417Z,18.53
2019-03-24T03:50:08.868Z,22.93
2019-03-24T03:51:42.550Z,20.60
2019-03-24T03:53:16.193Z,26.97
2019-03-24T03:54:49.880Z,22.30
2019-03-24T03:56:23.488Z,20.10
2019-03-24T03:57:57.274Z,26.43
2019-03-24T03:59:31.226Z,23.38
2019-03-24T04:01:05.040Z,24.83
2019-03-24T04:02:38.795Z,23.17
2019-03-24T04:04:12.537Z,21.00
2019-03-24T04:05:46.192Z,19.63
2019-03-24T04:07:19.820Z,25.47
2019-03-24T04:08:54.548Z,19.73
2019-03-24T04:10:28.235Z,17.13
2019-03-24T04:12:01.953Z,22.50
2019-03-24T04:13:35.618Z,20.40
2019-03-24T04:15:09.751Z,13.50
2019-03-24T04:16:43.525Z,18.50
2019-03-24T04:18:17.187Z,18.33
2019-03-24T04:19:50.835Z,21.27
2019-03-24T04:21:24.483Z,15.00
2019-03-24T04:22:58.168Z,19.73
2019-03-24T04:24:31.880Z,21.40
2019-03-24T04:26:05.590Z,19.90
2019-03-24T04:27:39.290Z,28.90
2019-03-24T04:29:13.048Z,25.13
2019-03-24T04:30:46.685Z,16.47
2019-03-24T04:32:22.408Z,19.27
2019-03-24T04:33:56.099Z,24.37
2019-03-24T04:35:29.836Z,17.03
2019-03-24T04:37:03.539Z,15.50
2019-03-24T04:38:37.226Z,17.17
2019-03-24T04:40:10.939Z,17.83
2019-03-24T04:41:44.579Z,15.17
2019-03-24T04:43:18.329Z,15.17
2019-03-24T04:44:52.051Z,20.50
2019-03-24T04:46:25.763Z,19.53
2019-03-24T04:47:59.448Z,20.00
2019-03-24T04:49:33.109Z,19.47
2019-03-24T04:51:06.736Z,17.10
2019-03-24T04:52:40.395Z,19.37
2019-03-24T04:54:14.174Z,15.57
2019-03-24T04:55:47.832Z,20.60
2019-03-24T04:57:21.538Z,33.57
2019-03-24T04:58:55.180Z,42.33
2019-03-24T05:00:39.895Z,52.13
2019-03-24T05:02:13.648Z,32.03
2019-03-24T05:03:47.300Z,23.77
2019-03-24T05:05:21.010Z,24.43
2019-03-24T05:06:55.029Z,24.70
2019-03-24T05:08:30.268Z,31.77
2019-03-24T05:10:06.010Z,25.30
2019-03-24T05:11:39.724Z,28.60
2019-03-24T05:13:13.353Z,20.47
2019-03-24T05:14:47.024Z,21.47
2019-03-24T05:16:21.382Z,22.15
2019-03-24T05:17:55.671Z,23.62
2019-03-24T05:19:29.990Z,20.70
2019-03-24T05:21:04.304Z,15.38
2019-03-24T05:22:38.671Z,23.47
2019-03-24T05:24:12.833Z,17.07
2019-03-24T05:25:47.149Z,18.70
2019-03-24T05:27:21.502Z,18.80
2019-03-24T05:28:55.798Z,18.07
2019-03-24T05:30:30.088Z,16.60
2019-03-24T05:32:04.732Z,16.70
2019-03-24T05:33:39.036Z,17.32
2019-03-24T05:35:13.278Z,18.57
2019-03-24T05:36:47.625Z,16.37
2019-03-24T05:38:21.914Z,17.32
2019-03-24T05:39:56.261Z,16.12
2019-03-24T05:41:30.594Z,19.23
2019-03-24T05:43:04.838Z,12.28
2019-03-24T05:44:39.108Z,15.83
2019-03-24T05:46:13.411Z,16.80
2019-03-24T05:47:47.758Z,16.23
2019-03-24T05:49:21.995Z,24.60
2019-03-24T05:50:56.253Z,19.37
2019-03-24T05:52:30.552Z,19.00
2019-03-24T05:54:04.977Z,15.30
2019-03-24T05:55:39.267Z,15.03
2019-03-24T05:57:15.703Z,20.00
2019-03-24T05:58:50.041Z,22.07
2019-03-24T06:00:24.338Z,16.80
2019-03-24T06:01:58.655Z,19.77
2019-03-24T06:03:32.973Z,21.48
2019-03-24T06:05:07.658Z,17.87
2019-03-24T06:06:43.344Z,15.15
2019-03-24T06:08:17.581Z,20.90
2019-03-24T06:09:51.813Z,18.85
2019-03-24T06:11:26.608Z,20.35
2019-03-24T06:13:02.083Z,18.50
2019-03-24T06:14:36.391Z,15.60
2019-03-24T06:16:10.706Z,20.97
2019-03-24T06:17:47.981Z,21.93
2019-03-24T06:19:21.312Z,21.37
2019-03-24T06:20:55.604Z,31.17
2019-03-24T06:22:29.820Z,26.97
2019-03-24T06:24:04.147Z,25.72
2019-03-24T06:25:38.482Z,27.75
2019-03-24T06:27:12.710Z,23.45
2019-03-24T06:28:47.011Z,21.87
2019-03-24T06:30:21.318Z,26.40
2019-03-24T06:31:55.638Z,20.92
2019-03-24T06:33:29.946Z,23.10
2019-03-24T06:35:06.005Z,37.13
2019-03-24T06:36:40.306Z,25.97
2019-03-24T06:38:14.612Z,26.23
2019-03-24T06:39:48.900Z,25.32
2019-03-24T06:41:23.196Z,23.27
2019-03-24T06:42:57.519Z,25.75
2019-03-24T06:44:31.840Z,30.75
2019-03-24T06:46:06.699Z,26.60
2019-03-24T06:47:40.959Z,36.88
2019-03-24T06:49:15.193Z,32.05
2019-03-24T06:50:49.455Z,25.35
2019-03-24T06:52:23.770Z,25.30
2019-03-24T06:53:58.073Z,37.05
2019-03-24T06:55:32.293Z,26.55
2019-03-24T06:57:06.649Z,27.37
2019-03-24T06:58:40.904Z,29.32
2019-03-24T07:00:15.702Z,25.48
2019-03-24T07:01:50.012Z,32.98
2019-03-24T07:03:24.335Z,24.02
2019-03-24T07:04:58.953Z,31.73
2019-03-24T07:06:34.783Z,23.07
2019-03-24T07:08:09.093Z,30.25
2019-03-24T07:09:43.327Z,26.82
2019-03-24T07:11:17.586Z,19.23
2019-03-24T07:12:52.316Z,28.00
2019-03-24T07:14:26.625Z,24.55
2019-03-24T07:16:00.933Z,24.47
2019-03-24T07:17:36.778Z,21.33
2019-03-24T07:19:11.575Z,21.48
2019-03-24T07:20:45.885Z,20.65
2019-03-24T07:22:20.959Z,21.52
2019-03-24T07:23:55.255Z,20.60
2019-03-24T07:25:30.971Z,20.17
2019-03-24T07:27:05.296Z,19.55
2019-03-24T07:28:41.517Z,20.57
2019-03-24T07:30:15.957Z,21.02
2019-03-24T07:31:50.302Z,19.12
2019-03-24T07:33:24.676Z,20.68
2019-03-24T07:34:59.000Z,22.65
2019-03-24T07:36:33.307Z,14.13
2019-03-24T07:38:07.610Z,15.60
2019-03-24T07:39:42.004Z,15.75
2019-03-24T07:41:18.587Z,15.72
2019-03-24T07:42:52.826Z,16.30
2019-03-24T07:44:27.085Z,14.03
2019-03-24T07:46:01.540Z,22.25
2019-03-24T07:47:35.844Z,22.10
2019-03-24T07:49:10.171Z,24.50
2019-03-24T07:50:44.430Z,17.70
2019-03-24T07:52:20.106Z,15.88
2019-03-24T07:53:56.394Z,15.50
2019-03-24T07:55:30.706Z,17.55
2019-03-24T07:57:05.027Z,14.05
2019-03-24T07:58:39.361Z,15.45
2019-03-24T08:00:13.978Z,17.25
2019-03-24T08:01:48.278Z,16.17
2019-03-24T08:03:22.569Z,12.50
2019-03-24T08:04:56.824Z,15.65
2019-03-24T08:06:31.148Z,14.25
2019-03-24T08:08:07.636Z,13.43
2019-03-24T08:09:41.859Z,16.50
2019-03-24T08:11:16.202Z,10.13
2019-03-24T08:12:50.429Z,10.00
2019-03-24T08:14:24.886Z,9.75
2019-03-24T08:15:59.788Z,9.85
2019-03-24T08:17:34.097Z,9.75
2019-03-24T08:19:08.375Z,14.35
2019-03-24T08:20:42.656Z,9.73
2019-03-24T08:22:16.896Z,10.28
2019-03-24T08:23:51.229Z,9.73
2019-03-24T08:25:25.555Z,13.10
2019-03-24T08:26:59.861Z,12.78
2019-03-24T08:28:34.145Z,9.95
2019-03-24T08:30:09.320Z,10.70
2019-03-24T08:31:43.564Z,9.78
2019-03-24T08:33:17.858Z,10.85
2019-03-24T08:34:52.163Z,9.90
2019-03-24T08:36:26.930Z,10.08
2019-03-24T08:38:01.149Z,9.25
2019-03-24T08:39:37.708Z,9.58
2019-03-24T08:41:12.016Z,12.30
2019-03-24T08:42:46.284Z,9.50
2019-03-24T08:44:20.615Z,10.65
2019-03-24T08:45:54.936Z,11.88
2019-03-24T08:47:29.212Z,9.63
2019-03-24T08:49:03.557Z,14.65
2019-03-24T08:50:37.853Z,11.85
2019-03-24T08:52:12.083Z,10.78
2019-03-24T08:53:46.392Z,10.18
2019-03-24T08:55:20.753Z,13.32
2019-03-24T08:56:55.082Z,9.90
2019-03-24T08:58:29.327Z,10.00
2019-03-24T09:00:04.768Z,13.05
2019-03-24T09:01:38.973Z,11.45
2019-03-24T09:03:13.288Z,14.13
2019-03-24T09:04:47.550Z,9.40
2019-03-24T09:06:21.930Z,10.00
2019-03-24T09:07:56.718Z,9.40
2019-03-24T09:09:31.006Z,9.63
2019-03-24T09:11:05.417Z,10.30
2019-03-24T09:12:39.705Z,10.53
2019-03-24T09:14:14.009Z,12.45
2019-03-24T09:15:51.264Z,9.90
2019-03-24T09:17:25.508Z,13.60
2019-03-24T09:18:59.811Z,10.03
2019-03-24T09:20:41.586Z,11.70
2019-03-24T09:22:09.902Z,11.68
2019-03-24T09:23:44.419Z,12.45
2019-03-24T09:25:18.817Z,13.72
2019-03-24T09:26:53.154Z,14.25
2019-03-24T09:28:27.453Z,10.35
2019-03-24T09:30:01.810Z,10.82
2019-03-24T09:31:36.416Z,18.07
2019-03-24T09:33:10.683Z,12.35
2019-03-24T09:34:44.906Z,13.53
2019-03-24T09:36:19.142Z,16.10
2019-03-24T09:37:53.416Z,10.48
2019-03-24T09:39:28.208Z,12.65
2019-03-24T09:41:02.556Z,11.93
2019-03-24T09:42:36.869Z,12.25
2019-03-24T09:44:12.802Z,15.83
2019-03-24T09:45:47.147Z,13.88
2019-03-24T09:47:21.437Z,13.85
2019-03-24T09:49:03.068Z,13.22
2019-03-24T09:50:31.603Z,17.70
2019-03-24T09:52:05.857Z,10.45
2019-03-24T09:53:40.127Z,12.50
2019-03-24T09:55:14.386Z,12.47
2019-03-24T09:56:48.701Z,12.93
2019-03-24T09:58:22.942Z,11.00
2019-03-24T09:59:57.247Z,11.45
2019-03-24T10:01:31.613Z,11.48
2019-03-24T10:03:06.016Z,12.30
2019-03-24T10:04:40.312Z,13.93
2019-03-24T10:06:14.598Z,16.57
2019-03-24T10:07:48.941Z,8.90
2019-03-24T10:09:23.218Z,11.40
2019-03-24T10:10:57.444Z,10.68
2019-03-24T10:12:31.739Z,11.33
2019-03-24T10:14:06.047Z,10.75
2019-03-24T10:15:40.285Z,12.73
2019-03-24T10:17:14.661Z,12.43
2019-03-24T10:18:48.950Z,11.88
2019-03-24T10:20:23.229Z,15.60
2019-03-24T10:21:57.455Z,14.53
2019-03-24T10:23:31.673Z,14.18
2019-03-24T10:25:07.462Z,9.33
2019-03-24T10:26:42.507Z,13.75
2019-03-24T10:28:16.847Z,21.50
2019-03-24T10:29:51.167Z,19.57
2019-03-24T10:31:25.447Z,16.50
2019-03-24T10:32:59.796Z,13.85
2019-03-24T10:34:34.101Z,11.73
2019-03-24T10:36:11.426Z,15.05
2019-03-24T10:37:45.734Z,11.38
2019-03-24T10:39:20.072Z,10.43
2019-03-24T10:40:54.445Z,15.55
2019-03-24T10:42:29.261Z,11.60
2019-03-24T10:44:03.482Z,15.40
2019-03-24T10:45:37.757Z,11.22
2019-03-24T10:47:13.570Z,15.53
2019-03-24T10:48:47.882Z,11.12
2019-03-24T10:50:22.143Z,22.95
2019-03-24T10:51:56.363Z,15.65
2019-03-24T10:53:31.124Z,16.07
2019-03-24T10:55:12.167Z,11.83
2019-03-24T10:56:46.488Z,15.28
2019-03-24T10:58:20.685Z,11.22
2019-03-24T10:59:55.029Z,15.25
2019-03-24T11:01:29.337Z,14.70
2019-03-24T11:03:05.251Z,12.60
2019-03-24T11:04:39.530Z,12.50
2019-03-24T11:06:13.894Z,10.88
2019-03-24T11:07:48.206Z,10.58
2019-03-24T11:09:22.549Z,11.03
2019-03-24T11:10:56.862Z,10.80
2019-03-24T11:12:31.162Z,12.10
2019-03-24T11:14:05.451Z,11.03
2019-03-24T11:15:39.781Z,11.05
2019-03-24T11:17:14.104Z,11.18
2019-03-24T11:18:48.525Z,10.82
2019-03-24T11:20:22.860Z,10.53
2019-03-24T11:21:57.068Z,10.70
2019-03-24T11:23:31.361Z,10.63
2019-03-24T11:25:07.868Z,12.33
2019-03-24T11:26:42.201Z,9.40
2019-03-24T11:28:16.544Z,15.88
2019-03-24T11:29:50.797Z,11.30
2019-03-24T11:31:25.092Z,17.35
2019-03-24T11:32:59.356Z,11.75
2019-03-24T11:34:34.036Z,14.15
2019-03-24T11:36:08.304Z,13.48
2019-03-24T11:37:42.628Z,11.10
2019-03-24T11:39:16.924Z,12.05
2019-03-24T11:40:51.212Z,13.08
2019-03-24T11:42:25.500Z,13.65
2019-03-24T11:44:00.200Z,12.98
2019-03-24T11:45:34.499Z,15.98
2019-03-24T11:47:10.420Z,11.57
2019-03-24T11:48:44.716Z,14.93
2019-03-24T11:50:19.008Z,12.68
2019-03-24T11:51:53.372Z,12.78
2019-03-24T11:53:27.645Z,11.12
2019-03-24T11:55:01.867Z,12.35
2019-03-24T11:56:36.219Z,11.03
2019-03-24T11:58:10.514Z,10.15
2019-03-24T11:59:45.235Z,10.53
2019-03-24T12:01:19.465Z,14.05
2019-03-24T12:02:53.692Z,10.05
2019-03-24T12:04:27.954Z,10.63
2019-03-24T12:06:02.260Z,13.28
2019-03-24T12:07:36.640Z,12.55
2019-03-24T12:09:10.917Z,10.23
2019-03-24T12:10:45.200Z,17.37
2019-03-24T12:12:19.448Z,10.68
2019-03-24T12:13:53.767Z,9.90
2019-03-24T12:15:28.202Z,12.98
2019-03-24T12:17:02.490Z,12.33
2019-03-24T12:18:36.687Z,9.33
2019-03-24T12:20:11.390Z,10.90
2019-03-24T12:21:45.654Z,10.95
2019-03-24T12:23:21.049Z,12.43
2019-03-24T12:24:55.387Z,9.05
2019-03-24T12:26:29.653Z,12.95
2019-03-24T12:28:04.003Z,9.30
2019-03-24T12:29:38.263Z,9.23
2019-03-24T12:31:12.786Z,9.58
2019-03-24T12:32:47.067Z,9.00
2019-03-24T12:34:21.345Z,13.38
2019-03-24T12:35:55.589Z,21.93
2019-03-24T12:37:29.897Z,9.55
2019-03-24T12:39:05.206Z,12.30
2019-03-24T12:40:40.499Z,9.75
2019-03-24T12:42:14.750Z,10.38
2019-03-24T12:43:49.070Z,10.78
2019-03-24T12:45:23.933Z,12.93
2019-03-24T12:46:58.854Z,16.00
2019-03-24T12:48:33.190Z,9.45
2019-03-24T12:50:09.977Z,12.65
2019-03-24T12:51:44.798Z,7.05
2019-03-24T12:53:19.099Z,9.40
2019-03-24T12:54:53.394Z,11.28
2019-03-24T12:56:27.682Z,9.65
2019-03-24T12:58:02.035Z,12.82
2019-03-24T12:59:36.250Z,8.03
2019-03-24T13:01:10.471Z,10.63
2019-03-24T13:02:45.256Z,11.08
2019-03-24T13:04:19.597Z,12.90
2019-03-24T13:05:53.822Z,7.53
2019-03-24T13:07:28.068Z,9.05
2019-03-24T13:09:02.459Z,13.98
2019-03-24T13:10:36.704Z,12.93
2019-03-24T13:12:10.950Z,10.90
2019-03-24T13:13:45.223Z,10.03
2019-03-24T13:15:19.445Z,8.70
2019-03-24T13:16:54.148Z,14.25
2019-03-24T13:18:28.870Z,14.13
2019-03-24T13:20:04.257Z,10.88
2019-03-24T13:21:38.917Z,10.55
2019-03-24T13:23:13.141Z,11.35
2019-03-24T13:24:47.441Z,11.30
2019-03-24T13:26:21.789Z,12.50
2019-03-24T13:27:56.029Z,12.07
2019-03-24T13:29:30.255Z,15.38
2019-03-24T13:31:04.464Z,12.60
2019-03-24T13:32:38.724Z,13.15
2019-03-24T13:34:13.415Z,13.18
2019-03-24T13:35:49.274Z,10.40
2019-03-24T13:37:23.562Z,11.63
2019-03-24T13:38:57.899Z,11.80
2019-03-24T13:40:32.235Z,11.03
2019-03-24T13:42:06.523Z,9.38
2019-03-24T13:43:40.865Z,13.43
2019-03-24T13:45:15.159Z,11.90
2019-03-24T13:46:49.391Z,9.35
2019-03-24T13:48:23.675Z,9.48
2019-03-24T13:49:58.544Z,9.68
2019-03-24T13:51:32.825Z,11.70
2019-03-24T13:53:07.675Z,8.55
2019-03-24T13:54:41.985Z,10.40
2019-03-24T13:56:16.281Z,12.37
2019-03-24T13:57:50.570Z,15.88
2019-03-24T13:59:24.874Z,8.60
2019-03-24T14:00:59.126Z,11.05
2019-03-24T14:02:33.458Z,9.43
2019-03-24T14:04:07.676Z,8.50
2019-03-24T14:05:42.296Z,15.23
2019-03-24T14:07:16.571Z,9.63
2019-03-24T14:08:50.799Z,7.20
2019-03-24T14:10:25.018Z,9.28
2019-03-24T14:11:59.247Z,7.15
2019-03-24T14:13:33.596Z,11.90
2019-03-24T14:15:08.880Z,7.33
2019-03-24T14:16:43.164Z,7.72
2019-03-24T14:18:17.389Z,11.48
2019-03-24T14:19:51.724Z,9.15
2019-03-24T14:21:26.010Z,6.35
2019-03-24T14:23:00.529Z,6.53
2019-03-24T14:24:34.833Z,7.70
2019-03-24T14:26:09.117Z,7.47
2019-03-24T14:27:43.466Z,8.58
2019-03-24T14:29:17.754Z,6.90
2019-03-24T14:30:52.127Z,6.15
2019-03-24T14:32:26.429Z,8.65
2019-03-24T14:34:00.745Z,15.10
2019-03-24T14:35:35.044Z,16.57
2019-03-24T14:37:11.667Z,8.98
2019-03-24T14:38:45.180Z,6.60
2019-03-24T14:40:21.072Z,15.05
2019-03-24T14:41:55.378Z,27.95
2019-03-24T14:43:29.737Z,18.82
2019-03-24T14:45:05.383Z,6.15
2019-03-24T14:46:39.624Z,6.72
2019-03-24T14:48:13.936Z,7.78
2019-03-24T14:49:48.205Z,9.40
2019-03-24T14:51:22.526Z,11.20
2019-03-24T14:52:56.804Z,13.18
2019-03-24T14:54:31.113Z,52.65
2019-03-24T14:56:05.410Z,27.82
2019-03-24T14:57:39.769Z,85.85
2019-03-24T14:59:13.990Z,48.25
2019-03-24T15:00:49.835Z,18.15
2019-03-24T15:02:24.137Z,12.13
2019-03-24T15:03:58.475Z,37.40
2019-03-24T15:05:32.776Z,15.00
2019-03-24T15:07:07.084Z,62.62
2019-03-24T15:08:41.410Z,18.35
2019-03-24T15:10:15.678Z,9.28
2019-03-24T15:11:49.999Z,12.50
2019-03-24T15:13:24.289Z,14.50
2019-03-24T15:14:59.026Z,10.55
2019-03-24T15:16:33.399Z,10.30
2019-03-24T15:18:07.745Z,11.40
2019-03-24T15:19:41.961Z,8.33
2019-03-24T15:21:16.296Z,21.45
2019-03-24T15:22:50.583Z,10.88
2019-03-24T15:24:25.020Z,10.13
2019-03-24T15:25:59.240Z,7.42
2019-03-24T15:27:35.018Z,13.45
2019-03-24T15:29:09.380Z,15.55
2019-03-24T15:30:43.625Z,10.05
2019-03-24T15:32:17.932Z,14.60
2019-03-24T15:33:52.257Z,12.60
2019-03-24T15:35:28.081Z,15.35
2019-03-24T15:37:02.298Z,18.32
2019-03-24T15:38:36.611Z,17.60
2019-03-24T15:40:11.111Z,90.50
2019-03-24T15:41:45.366Z,19.05
2019-03-24T15:43:19.670Z,13.25
2019-03-24T15:44:53.981Z,11.25
2019-03-24T15:46:28.297Z,13.62
2019-03-24T15:48:02.563Z,11.70
2019-03-24T15:49:36.872Z,13.00
2019-03-24T15:51:16.766Z,22.93
2019-03-24T15:52:47.161Z,15.08
2019-03-24T15:54:22.005Z,53.28
2019-03-24T15:55:56.332Z,15.10
2019-03-24T15:57:30.701Z,19.37
2019-03-24T15:59:04.995Z,25.32
2019-03-24T16:00:44.417Z,17.65
2019-03-24T16:02:18.733Z,15.60
2019-03-24T16:03:53.025Z,13.90
2019-03-24T16:05:27.326Z,18.67
2019-03-24T16:07:01.651Z,12.00
2019-03-24T16:08:35.911Z,13.90
2019-03-24T16:10:10.956Z,14.30
2019-03-24T16:11:45.196Z,16.95
2019-03-24T16:13:19.520Z,29.32
2019-03-24T16:14:53.808Z,17.82
2019-03-24T16:16:28.161Z,24.47
2019-03-24T16:18:02.529Z,35.38
2019-03-24T16:19:36.753Z,37.45
2019-03-24T16:21:10.998Z,44.98
2019-03-24T16:22:45.288Z,32.35
2019-03-24T16:24:19.622Z,25.52
2019-03-24T16:25:55.732Z,32.10
2019-03-24T16:27:30.183Z,28.12
2019-03-24T16:29:05.883Z,29.27
2019-03-24T16:30:40.168Z,55.92
2019-03-24T16:32:14.533Z,61.50
2019-03-24T16:33:48.873Z,70.40
2019-03-24T16:35:23.083Z,90.85
2019-03-24T16:36:57.427Z,102.95
2019-03-24T16:38:31.773Z,112.75
2019-03-24T16:40:10.096Z,96.37
2019-03-24T16:41:44.396Z,88.90
2019-03-24T16:43:18.713Z,72.25
2019-03-24T16:44:53.080Z,79.03
2019-03-24T16:46:27.721Z,86.22
2019-03-24T16:48:02.045Z,90.10
2019-03-24T16:49:36.361Z,102.78
2019-03-24T16:51:10.664Z,102.15
2019-03-24T16:52:44.981Z,106.43
2019-03-24T16:54:19.380Z,101.25
2019-03-24T16:55:53.570Z,89.75
2019-03-24T16:57:29.105Z,94.77
2019-03-24T16:59:03.406Z,77.12
2019-03-24T17:00:37.714Z,75.47
2019-03-24T17:02:12.014Z,96.72
2019-03-24T17:03:46.257Z,79.10
2019-03-24T17:05:20.585Z,63.58
2019-03-24T17:06:54.908Z,64.37
2019-03-24T17:08:29.191Z,61.60
2019-03-24T17:10:04.208Z,62.38
2019-03-24T17:11:38.521Z,64.92
2019-03-24T17:13:12.876Z,35.33
2019-03-24T17:14:47.208Z,31.30
2019-03-24T17:16:21.538Z,28.62
2019-03-24T17:17:55.886Z,33.60
2019-03-24T17:19:30.186Z,26.52
2019-03-24T17:21:05.805Z,23.75
2019-03-24T17:22:40.693Z,28.20
2019-03-24T17:24:15.002Z,25.88
2019-03-24T17:25:49.985Z,29.75
2019-03-24T17:27:24.831Z,33.88
2019-03-24T17:28:59.200Z,37.53
2019-03-24T17:30:35.072Z,40.12
2019-03-24T17:32:09.377Z,56.55
2019-03-24T17:33:43.724Z,40.63
2019-03-24T17:35:17.996Z,55.35
2019-03-24T17:36:52.255Z,40.60
2019-03-24T17:38:26.597Z,42.75
2019-03-24T17:40:00.824Z,40.52
2019-03-24T17:41:35.891Z,53.17
2019-03-24T17:43:10.097Z,61.28
2019-03-24T17:44:44.419Z,58.33
2019-03-24T17:46:19.557Z,52.00
2019-03-24T17:47:54.050Z,45.25
2019-03-24T17:49:28.336Z,61.23
2019-03-24T17:51:02.694Z,74.30
2019-03-24T17:52:37.922Z,59.80
2019-03-24T17:54:12.255Z,67.50
2019-03-24T17:55:46.533Z,45.88
2019-03-24T17:57:20.841Z,57.40
2019-03-24T17:58:55.091Z,26.27
2019-03-24T18:00:45.370Z,24.20
2019-03-24T18:02:19.757Z,25.12
2019-03-24T18:03:53.979Z,23.98
2019-03-24T18:05:29.689Z,22.13
2019-03-24T18:07:04.002Z,21.97
2019-03-24T18:08:41.494Z,20.45
2019-03-24T18:10:15.727Z,20.57
2019-03-24T18:11:49.951Z,27.55
2019-03-24T18:13:24.240Z,28.85
2019-03-24T18:14:58.541Z,26.95
2019-03-24T18:16:32.853Z,22.20
2019-03-24T18:18:07.167Z,37.03
2019-03-24T18:19:41.505Z,46.68
2019-03-24T18:21:16.664Z,41.40
2019-03-24T18:22:51.309Z,35.03
2019-03-24T18:24:25.612Z,23.45
2019-03-24T18:25:59.931Z,22.55
2019-03-24T18:27:34.441Z,28.00
2019-03-24T18:29:08.769Z,24.20
2019-03-24T18:30:43.094Z,18.82
2019-03-24T18:32:17.407Z,32.38
2019-03-24T18:33:51.671Z,24.12
2019-03-24T18:35:25.940Z,21.17
2019-03-24T18:37:00.257Z,24.25
2019-03-24T18:38:34.513Z,19.62
2019-03-24T18:40:09.991Z,17.73
2019-03-24T18:41:44.291Z,18.40
2019-03-24T18:43:18.518Z,19.07
2019-03-24T18:44:52.822Z,24.82
2019-03-24T18:46:27.054Z,20.55
2019-03-24T18:48:01.331Z,20.43
2019-03-24T18:49:35.716Z,18.95
2019-03-24T18:51:10.037Z,17.65
2019-03-24T18:52:44.358Z,18.90
2019-03-24T18:54:18.611Z,22.70
2019-03-24T18:55:52.945Z,20.90
2019-03-24T18:57:27.287Z,18.42
2019-03-24T18:59:03.476Z,21.40
2019-03-24T19:00:37.630Z,25.05
2019-03-24T19:02:13.704Z,24.75
2019-03-24T19:03:48.010Z,24.10
2019-03-24T19:05:23.885Z,27.62
2019-03-24T19:06:58.175Z,30.02
2019-03-24T19:08:32.453Z,25.05
2019-03-24T19:10:08.755Z,25.37
2019-03-24T19:11:44.654Z,27.48
2019-03-24T19:13:20.273Z,39.65
2019-03-24T19:14:56.841Z,50.92
2019-03-24T19:16:31.082Z,44.90
2019-03-24T19:18:05.341Z,31.85
2019-03-24T19:19:39.659Z,34.88
2019-03-24T19:21:14.036Z,30.55
2019-03-24T19:22:48.348Z,24.72
2019-03-24T19:24:22.766Z,21.73
2019-03-24T19:25:57.502Z,25.02
2019-03-24T19:27:31.734Z,27.40
2019-03-24T19:29:06.234Z,24.65
2019-03-24T19:30:42.869Z,25.25
2019-03-24T19:32:17.126Z,31.75
2019-03-24T19:33:51.549Z,31.77
2019-03-24T19:35:27.325Z,29.20
2019-03-24T19:37:02.053Z,29.23
2019-03-24T19:38:36.682Z,27.77
2019-03-24T19:40:25.759Z,28.80
2019-03-24T19:41:59.965Z,29.52
2019-03-24T19:43:34.313Z,24.90
2019-03-24T19:45:08.702Z,28.40
2019-03-24T19:46:42.919Z,34.18
2019-03-24T19:48:17.222Z,33.60
2019-03-24T19:49:51.511Z,33.40
2019-03-24T19:51:25.844Z,27.37
2019-03-24T19:53:00.197Z,30.37
2019-03-24T19:54:34.560Z,30.70
2019-03-24T19:56:08.896Z,30.05
2019-03-24T19:57:43.249Z,40.67
2019-03-24T19:59:17.971Z,26.52
2019-03-24T20:00:52.275Z,32.42
2019-03-24T20:02:26.603Z,30.75
2019-03-24T20:04:00.984Z,34.95
2019-03-24T20:05:35.243Z,31.90
2019-03-24T20:07:08.968Z,37.67
2019-03-24T20:08:42.680Z,38.60
2019-03-24T20:10:16.995Z,40.90
2019-03-24T20:11:51.388Z,38.42
2019-03-24T20:13:27.327Z,37.35
2019-03-24T20:15:01.648Z,37.85
2019-03-24T20:16:35.984Z,38.63
2019-03-24T20:18:10.208Z,49.93
2019-03-24T20:19:45.586Z,43.95